Time;durP1;ratioP1;P1;durP2;ratioP2;P2;SDS_P1;SDS_P2;PMS_P1;PMS_P2;Temp;Humidity;BMP_temperature;BMP_pressure;BME280_temperature;BME280_humidity;BME280_pressure;Samples;Min_cycle;Max_cycle;Signal;HPM_P1;HPM_P2
2023/09/03 00:02:20;;;;;;;1999.90;999.90;;;;;;;14.67;100.00;102494.41;10414019;28;20057;-70
2023/09/03 00:07:22;;;;;;;1999.90;999.90;;;;;;;14.55;100.00;102488.84;10413786;28;20395;-70
2023/09/03 00:12:25;;;;;;;1999.90;999.90;;;;;;;14.49;100.00;102484.69;10403996;28;20050;-70
2023/09/03 00:17:28;;;;;;;1999.90;999.90;;;;;;;14.53;100.00;102488.91;10421684;28;20125;-70
2023/09/03 00:22:30;;;;;;;1999.90;999.90;;;;;;;14.58;100.00;102486.91;10421447;28;20045;-70
2023/09/03 00:27:33;;;;;;;1999.90;999.90;;;;;;;14.52;100.00;102489.81;10420685;28;20132;-70
2023/09/03 00:32:35;;;;;;;1999.90;999.90;;;;;;;14.43;100.00;102503.44;10421128;28;20042;-71
2023/09/03 00:37:37;;;;;;;1999.90;999.90;;;;;;;14.47;100.00;102512.91;10420275;28;20046;-70
2023/09/03 00:42:40;;;;;;;1999.90;999.90;;;;;;;14.29;100.00;102515.47;10403138;28;20046;-70
2023/09/03 00:47:42;;;;;;;1999.90;999.90;;;;;;;14.26;100.00;102515.59;10402989;28;20057;-71
2023/09/03 00:52:45;;;;;;;1999.90;999.90;;;;;;;14.10;100.00;102527.75;10419733;28;20506;-71
2023/09/03 00:57:49;;;;;;;1999.90;999.90;;;;;;;14.11;100.00;102532.97;10401962;28;20410;-68
2023/09/03 01:02:54;;;;;;;1999.90;999.90;;;;;;;13.96;100.00;102517.00;10401614;28;20410;-68
2023/09/03 01:07:58;;;;;;;1999.90;999.90;;;;;;;13.93;100.00;102505.66;10420247;28;20550;-68
2023/09/03 01:13:41;;;;;;;1999.90;999.90;;;;;;;14.03;100.00;102503.47;10401958;28;20050;-68
2023/09/03 01:18:44;;;;;;;1999.90;999.90;;;;;;;14.06;100.00;102505.97;10401123;28;20057;-70
2023/09/03 01:24:11;;;;;;;1999.90;999.90;;;;;;;14.09;100.00;102499.72;10400047;28;20107;-70
2023/09/03 01:29:14;;;;;;;1999.90;999.90;;;;;;;13.91;100.00;102496.97;10418944;28;20060;-69
2023/09/03 01:34:17;;;;;;;1999.90;999.90;;;;;;;13.86;100.00;102506.84;10400563;28;20401;-69
2023/09/03 01:39:21;;;;;;;1999.90;999.90;;;;;;;13.83;100.00;102512.25;10400341;28;20136;-69
2023/09/03 01:44:24;;;;;;;1999.90;999.90;;;;;;;13.70;100.00;102508.44;10400800;28;20045;-69
2023/09/03 01:49:48;;;;;;;1999.90;999.90;;;;;;;13.79;100.00;102518.59;10400546;28;20056;-70
2023/09/03 01:54:52;;;;;;;1999.90;999.90;;;;;;;13.65;100.00;102536.75;10399837;28;20525;-70
2023/09/03 01:59:58;;;;;;;1999.90;999.90;;;;;;;13.71;100.00;102541.75;10399510;28;20490;-70
2023/09/03 02:05:00;;;;;;;1999.90;999.90;;;;;;;13.66;100.00;102528.78;10399732;28;20049;-70
2023/09/03 02:10:03;;;;;;;1999.90;999.90;;;;;;;13.89;100.00;102526.94;10416661;28;20490;-70
2023/09/03 02:15:06;;;;;;;1999.90;999.90;;;;;;;13.83;100.00;102535.09;10416656;28;20050;-70
2023/09/03 02:20:09;;;;;;;1999.90;999.90;;;;;;;13.85;100.00;102530.63;10398764;28;20135;-70
2023/09/03 02:25:11;;;;;;;1999.90;999.90;;;;;;;13.68;100.00;102515.56;10398601;28;20128;-70
2023/09/03 02:30:14;;;;;;;1999.90;999.90;;;;;;;13.78;100.00;102513.38;10398456;28;20215;-70
2023/09/03 02:35:16;;;;;;;1999.90;999.90;;;;;;;13.71;100.00;102528.59;10398284;28;20482;-70
2023/09/03 02:40:19;;;;;;;1999.90;999.90;;;;;;;13.68;100.00;102532.19;10416271;28;20072;-70
2023/09/03 02:45:21;;;;;;;1999.90;999.90;;;;;;;13.68;100.00;102545.34;10415393;28;20528;-70
2023/09/03 02:50:23;;;;;;;1999.90;999.90;;;;;;;13.63;100.00;102530.69;10416002;28;20063;-70
2023/09/03 02:55:26;;;;;;;1999.90;999.90;;;;;;;13.65;100.00;102495.50;10398365;28;20056;-70
2023/09/03 03:00:28;;;;;;;1999.90;999.90;;;;;;;13.76;100.00;102510.81;10398029;28;20053;-70
2023/09/03 03:05:30;;;;;;;1999.90;999.90;;;;;;;13.79;100.00;102492.25;10415647;28;20056;-70
2023/09/03 03:10:33;;;;;;;1999.90;999.90;;;;;;;13.70;100.00;102471.59;10415546;28;20111;-70
2023/09/03 03:15:35;;;;;;;1999.90;999.90;;;;;;;13.87;100.00;102478.75;10414774;28;20398;-70
2023/09/03 03:20:37;;;;;;;1999.90;999.90;;;;;;;13.93;100.00;102502.19;10414682;28;20505;-70
2023/09/03 03:25:40;;;;;;;1999.90;999.90;;;;;;;13.83;100.00;102524.56;10415177;28;20076;-70
2023/09/03 03:30:42;;;;;;;1999.90;999.90;;;;;;;13.72;100.00;102535.59;10415162;28;20050;-70
2023/09/03 03:35:44;;;;;;;1999.90;999.90;;;;;;;13.67;100.00;102540.19;10415047;28;20049;-70
2023/09/03 03:40:47;;;;;;;1999.90;999.90;;;;;;;13.62;100.00;102542.16;10414278;28;20406;-70
2023/09/03 03:45:51;;;;;;;1999.90;999.90;;;;;;;13.42;100.00;102556.16;10419924;28;20045;-70
2023/09/03 03:50:55;;;;;;;1999.90;999.90;;;;;;;13.24;100.00;102558.56;10422768;28;20107;-70
2023/09/03 03:56:05;;;;;;;1999.90;999.90;;;;;;;13.36;100.00;102549.34;10422590;28;20045;-70
2023/09/03 04:01:12;;;;;;;1999.90;999.90;;;;;;;13.22;100.00;102547.25;10387695;28;20572;-70
2023/09/03 04:06:15;;;;;;;1999.90;999.90;;;;;;;13.17;100.00;102555.31;10422191;28;20077;-70
2023/09/03 04:11:18;;;;;;;1999.90;999.90;;;;;;;13.12;100.00;102564.34;10403833;28;20049;-70
2023/09/03 04:16:22;;;;;;;1999.90;999.90;;;;;;;13.18;100.00;102564.09;10404297;28;20080;-70
2023/09/03 04:21:24;;;;;;;1999.90;999.90;;;;;;;13.23;100.00;102572.66;10420852;28;20491;-70
2023/09/03 04:26:27;;;;;;;1999.90;999.90;;;;;;;13.22;100.00;102577.97;10421436;28;20129;-70
2023/09/03 04:31:29;;;;;;;1999.90;999.90;;;;;;;13.16;100.00;102571.16;10403015;28;20042;-70
2023/09/03 04:36:33;;;;;;;1999.90;999.90;;;;;;;13.21;100.00;102566.56;10421044;28;20128;-70
2023/09/03 04:41:36;;;;;;;1999.90;999.90;;;;;;;13.25;100.00;102588.38;10420137;28;20510;-70
2023/09/03 04:46:38;;;;;;;1999.90;999.90;;;;;;;13.16;100.00;102586.94;10420616;28;20129;-70
2023/09/03 04:51:42;;;;;;;1999.90;999.90;;;;;;;13.30;100.00;102589.03;10402376;28;20498;-70
2023/09/03 04:56:47;;;;;;;1999.90;999.90;;;;;;;13.21;100.00;102582.34;10400965;28;20053;-70
2023/09/03 05:01:49;;;;;;;1999.90;999.90;;;;;;;13.28;100.00;102590.84;10402026;28;20045;-71
2023/09/03 05:06:52;;;;;;;1999.90;999.90;;;;;;;13.32;100.00;102595.13;10401749;28;20441;-71
2023/09/03 05:11:54;;;;;;;1999.90;999.90;;;;;;;13.37;100.00;102607.16;10401587;28;20071;-71
2023/09/03 05:16:56;;;;;;;1999.90;999.90;;;;;;;13.46;100.00;102611.19;10419544;28;20129;-70
2023/09/03 05:21:58;;;;;;;1999.90;999.90;;;;;;;13.52;100.00;102618.00;10419236;28;20049;-70
2023/09/03 05:27:01;;;;;;;1999.90;999.90;;;;;;;13.57;100.00;102618.66;10400938;28;20478;-70
2023/09/03 05:32:04;;;;;;;1999.90;999.90;;;;;;;13.69;100.00;102618.16;10418882;28;20056;-70
2023/09/03 05:37:06;;;;;;;1999.90;999.90;;;;;;;13.72;100.00;102631.19;10400495;28;20517;-70
2023/09/03 05:42:08;;;;;;;1999.90;999.90;;;;;;;13.68;100.00;102640.13;10417292;28;20113;-70
2023/09/03 05:47:13;;;;;;;1999.90;999.90;;;;;;;13.72;100.00;102649.63;10417658;28;20402;-69
2023/09/03 05:52:16;;;;;;;1999.90;999.90;;;;;;;13.85;100.00;102638.56;10418087;28;20120;-68
2023/09/03 05:57:18;;;;;;;1999.90;999.90;;;;;;;14.00;100.00;102634.44;10417857;28;20077;-68
2023/09/03 06:02:21;;;;;;;1999.90;999.90;;;;;;;14.17;100.00;102641.59;10416915;28;20046;-69
2023/09/03 06:07:23;;;;;;;1999.90;999.90;;;;;;;14.40;100.00;102656.41;10399660;28;20075;-68
2023/09/03 06:12:25;;;;;;;1999.90;999.90;;;;;;;14.51;100.00;102675.25;10416661;28;20111;-68
2023/09/03 06:17:28;;;;;;;1999.90;999.90;;;;;;;14.74;100.00;102683.94;10449093;22;20060;-70
2023/09/03 06:22:30;;;;;;;1999.90;999.90;;;;;;;14.94;100.00;102686.53;10457487;28;20052;-70
2023/09/03 06:27:33;;;;;;;1999.90;999.90;;;;;;;15.00;100.00;102710.00;10458043;28;20132;-70
2023/09/03 06:32:36;;;;;;;1999.90;999.90;;;;;;;15.03;100.00;102720.41;10458008;28;20254;-70
2023/09/03 06:37:39;;;;;;;1999.90;999.90;;;;;;;15.30;100.00;102719.19;10457648;28;20056;-70
2023/09/03 06:42:42;;;;;;;1999.90;999.90;;;;;;;15.36;100.00;102722.38;10439100;28;20059;-70
2023/09/03 06:47:45;;;;;;;1999.90;999.90;;;;;;;15.88;100.00;102715.56;10439720;28;20080;-70
2023/09/03 06:52:48;;;;;;;1999.90;999.90;;;;;;;15.86;100.00;102717.44;10438968;28;20523;-70
2023/09/03 06:57:50;;;;;;;1999.90;999.90;;;;;;;15.73;100.00;102719.78;10457077;28;20049;-70
2023/09/03 07:02:53;;;;;;;1999.90;999.90;;;;;;;15.82;100.00;102723.78;10457009;28;20048;-70
2023/09/03 07:07:55;;;;;;;1999.90;999.90;;;;;;;15.79;100.00;102730.09;10456429;28;20517;-70
2023/09/03 07:12:58;;;;;;;1999.90;999.90;;;;;;;16.27;100.00;102719.78;10456088;28;20045;-70
2023/09/03 07:18:00;;;;;;;1999.90;999.90;;;;;;;15.82;100.00;102718.50;10456386;28;20087;-70
2023/09/03 07:23:03;;;;;;;1999.90;999.90;;;;;;;16.23;100.00;102723.53;10447456;28;20056;-70
2023/09/03 07:28:05;;;;;;;1999.90;999.90;;;;;;;16.45;100.00;102728.56;10464587;28;20052;-70
2023/09/03 07:33:07;;;;;;;1999.90;999.90;;;;;;;16.56;100.00;102731.50;10464786;28;20049;-70
2023/09/03 07:38:10;;;;;;;1999.90;999.90;;;;;;;16.77;100.00;102741.91;10447147;28;20057;-70
2023/09/03 07:43:13;;;;;;;1999.90;999.90;;;;;;;16.89;100.00;102746.56;10463697;28;20478;-70
2023/09/03 07:48:15;;;;;;;1999.90;999.90;;;;;;;17.52;100.00;102744.94;10445873;28;20405;-70
2023/09/03 07:53:17;;;;;;;1999.90;999.90;;;;;;;16.97;100.00;102756.75;10463991;28;20055;-70
2023/09/03 07:58:20;;;;;;;1999.90;999.90;;;;;;;17.91;100.00;102752.44;10464012;28;20079;-70
2023/09/03 08:03:33;;;;;;;1999.90;999.90;;;;;;;17.77;100.00;102745.25;10462965;28;20450;-70
2023/09/03 08:08:38;;;;;;;1999.90;999.90;;;;;;;18.68;100.00;102752.34;10463522;28;20099;-69
2023/09/03 08:13:41;;;;;;;1999.90;999.90;;;;;;;19.36;100.00;102746.34;10429496;28;20071;-70
2023/09/03 08:18:43;;;;;;;1999.90;999.90;;;;;;;19.14;98.34;102759.28;10462319;28;20485;-70
2023/09/03 08:23:45;;;;;;;1999.90;999.90;;;;;;;19.20;98.65;102746.47;10462815;28;20061;-70
2023/09/03 08:28:48;;;;;;;1999.90;999.90;;;;;;;20.28;92.42;102751.91;10444732;28;20060;-70
2023/09/03 08:33:53;;;;;;;1999.90;999.90;;;;;;;19.86;91.41;102747.56;10461867;28;20487;-70
2023/09/03 08:38:56;;;;;;;1999.90;999.90;;;;;;;19.39;93.31;102746.16;10462330;28;20053;-70
2023/09/03 08:44:04;;;;;;;1999.90;999.90;;;;;;;20.62;90.90;102734.47;10462058;28;20052;-70
2023/09/03 08:49:07;;;;;;;1999.90;999.90;;;;;;;21.03;89.25;102743.19;10461226;28;20057;-70
2023/09/03 08:54:09;;;;;;;1999.90;999.90;;;;;;;21.51;84.45;102735.31;10426963;28;20044;-70
2023/09/03 08:59:12;;;;;;;1999.90;999.90;;;;;;;21.12;82.48;102719.41;10439188;28;20056;-70
2023/09/03 09:04:14;;;;;;;1999.90;999.90;;;;;;;21.55;81.07;102739.44;10456997;28;20075;-70
2023/09/03 09:09:17;;;;;;;1999.90;999.90;;;;;;;23.67;80.55;102737.25;10439049;28;20057;-71
2023/09/03 09:14:48;;;;;;;1999.90;999.90;;;;;;;23.51;78.57;102729.66;10443267;28;20045;-71
2023/09/03 09:19:51;;;;;;;1999.90;999.90;;;;;;;23.99;76.87;102725.72;10417326;28;20141;-71
2023/09/03 09:24:53;;;;;;;1999.90;999.90;;;;;;;22.51;76.13;102742.94;10418020;28;20133;-71
2023/09/03 09:30:12;;;;;;;1999.90;999.90;;;;;;;21.96;74.62;102740.00;10417275;28;20049;-71
2023/09/03 09:35:25;;;;;;;1999.90;999.90;;;;;;;23.52;76.86;102731.38;10417753;28;20041;-71
2023/09/03 09:40:29;;;;;;;1999.90;999.90;;;;;;;22.33;73.62;102735.41;10400775;28;20073;-72
2023/09/03 09:45:32;;;;;;;1999.90;999.90;;;;;;;22.97;73.22;102740.19;10395111;28;20483;-71
2023/09/03 09:50:36;;;;;;;1999.90;999.90;;;;;;;24.52;70.70;102728.31;10449266;28;20053;-71
2023/09/03 09:55:39;;;;;;;1999.90;999.90;;;;;;;24.27;70.07;102740.28;10458629;28;20136;-71
2023/09/03 10:00:42;;;;;;;1999.90;999.90;;;;;;;25.20;67.93;102730.41;10459037;28;20053;-71
2023/09/03 10:05:50;;;;;;;1999.90;999.90;;;;;;;25.03;62.83;102731.91;10454338;28;20045;-70
2023/09/03 10:10:53;;;;;;;1999.90;999.90;;;;;;;26.37;66.36;102745.72;10458253;28;20508;-70
2023/09/03 10:15:55;;;;;;;1999.90;999.90;;;;;;;26.03;61.45;102746.19;10392012;28;20053;-70
2023/09/03 10:21:01;;;;;;;1999.90;999.90;;;;;;;26.22;63.08;102753.38;10416437;28;20494;-71
2023/09/03 10:26:04;;;;;;;1999.90;999.90;;;;;;;25.58;57.37;102759.13;10398861;28;20045;-70
2023/09/03 10:31:08;;;;;;;1999.90;999.90;;;;;;;25.82;58.78;102749.00;10398604;28;20091;-71
2023/09/03 10:36:18;;;;;;;1999.90;999.90;;;;;;;24.72;61.87;102741.81;10399060;28;20076;-70
2023/09/03 10:41:26;;;;;;;1999.90;999.90;;;;;;;24.50;62.23;102732.94;10398943;28;20076;-71
2023/09/03 10:46:29;;;;;;;1999.90;999.90;;;;;;;25.26;60.84;102729.88;10398111;28;20080;-71
2023/09/03 10:51:32;;;;;;;1999.90;999.90;;;;;;;25.62;60.47;102730.22;10416085;28;20046;-71
2023/09/03 10:56:34;;;;;;;1999.90;999.90;;;;;;;26.31;59.34;102731.88;10415973;28;20049;-72
2023/09/03 11:01:37;;;;;;;1999.90;999.90;;;;;;;24.89;55.80;102726.94;10398276;28;20049;-72
2023/09/03 11:06:39;;;;;;;1999.90;999.90;;;;;;;25.82;56.61;102723.00;10414965;28;20621;-72
2023/09/03 11:11:42;;;;;;;1999.90;999.90;;;;;;;26.04;61.53;102718.34;10415499;28;20054;-72
2023/09/03 11:16:44;;;;;;;1999.90;999.90;;;;;;;25.69;54.31;102719.78;10414635;28;20049;-70
2023/09/03 11:21:46;;;;;;;1999.90;999.90;;;;;;;25.54;56.84;102725.56;10414898;28;20057;-73
2023/09/03 11:27:04;;;;;;;1999.90;999.90;;;;;;;25.64;54.51;102724.69;10398002;28;20068;-72
2023/09/03 11:32:06;;;;;;;1999.90;999.90;;;;;;;25.75;52.89;102733.44;10414570;28;20429;-75
2023/09/03 11:37:09;;;;;;;1999.90;999.90;;;;;;;24.97;53.50;102732.47;10415089;28;20055;-72
2023/09/03 11:42:13;;;;;;;1999.90;999.90;;;;;;;26.12;57.32;102746.16;10414929;28;20061;-72
2023/09/03 11:47:15;;;;;;;1999.90;999.90;;;;;;;26.46;56.96;102736.75;10381537;28;20049;-72
2023/09/03 11:52:17;;;;;;;1999.90;999.90;;;;;;;26.77;54.97;102731.19;10414811;28;20060;-72
2023/09/03 11:57:20;;;;;;;1999.90;999.90;;;;;;;26.64;55.72;102739.56;10414880;28;20053;-72
2023/09/03 12:02:22;;;;;;;1999.90;999.90;;;;;;;26.96;52.48;102736.44;10380963;28;20053;-72
2023/09/03 12:07:25;;;;;;;1999.90;999.90;;;;;;;27.54;53.49;102726.34;10402923;28;20060;-73
2023/09/03 12:12:27;;;;;;;1999.90;999.90;;;;;;;27.10;53.82;102729.72;10421449;28;20152;-72
2023/09/03 12:17:30;;;;;;;1999.90;999.90;;;;;;;27.78;52.25;102729.22;10421440;28;20058;-72
2023/09/03 12:22:32;;;;;;;1999.90;999.90;;;;;;;26.98;49.01;102729.09;10421059;28;20049;-72
2023/09/03 12:27:50;;;;;;;1999.90;999.90;;;;;;;25.83;46.21;102734.59;10420925;28;20402;-72
2023/09/03 12:32:55;;;;;;;1999.90;999.90;;;;;;;26.61;51.73;102740.69;10420855;28;20049;-71
2023/09/03 12:38:01;;;;;;;1999.90;999.90;;;;;;;26.35;53.13;102742.31;10403703;28;20057;-71
2023/09/03 12:43:03;;;;;;;1999.90;999.90;;;;;;;26.06;53.03;102730.66;10403265;28;20077;-71
2023/09/03 12:48:06;;;;;;;1999.90;999.90;;;;;;;25.67;54.72;102729.78;10402723;28;20500;-71
2023/09/03 12:53:09;;;;;;;1999.90;999.90;;;;;;;25.13;57.20;102726.59;10419964;28;20530;-71
2023/09/03 12:58:12;;;;;;;1999.90;999.90;;;;;;;23.75;53.24;102729.44;10419764;28;20140;-70
2023/09/03 13:03:15;;;;;;;1999.90;999.90;;;;;;;25.22;54.79;102731.13;10419468;28;20084;-70
2023/09/03 13:08:17;;;;;;;1999.90;999.90;;;;;;;25.43;59.11;102731.03;10420030;28;20050;-70
2023/09/03 13:13:20;;;;;;;1999.90;999.90;;;;;;;25.04;54.08;102726.41;10419083;28;20054;-70
2023/09/03 13:18:25;;;;;;;1999.90;999.90;;;;;;;25.14;56.12;102721.09;10418110;28;20179;-70
2023/09/03 13:23:28;;;;;;;1999.90;999.90;;;;;;;25.67;58.91;102722.59;10418949;28;20490;-70
2023/09/03 13:28:32;;;;;;;1999.90;999.90;;;;;;;25.18;57.68;102717.16;10418542;28;20053;-70
2023/09/03 13:33:35;;;;;;;1999.90;999.90;;;;;;;24.53;57.34;102726.47;10400925;28;20071;-70
2023/09/03 13:38:38;;;;;;;1999.90;999.90;;;;;;;26.07;56.24;102726.97;10400656;28;20395;-70
2023/09/03 13:43:42;;;;;;;1999.90;999.90;;;;;;;24.89;55.41;102722.44;10418562;28;20049;-70
2023/09/03 13:48:44;;;;;;;1999.90;999.90;;;;;;;25.46;56.10;102721.88;10418498;28;20054;-70
2023/09/03 13:53:49;;;;;;;1999.90;999.90;;;;;;;26.60;55.38;102730.94;10418263;28;20121;-70
2023/09/03 13:58:52;;;;;;;1999.90;999.90;;;;;;;26.28;54.74;102729.47;10417429;28;20493;-70
2023/09/03 14:03:55;;;;;;;1999.90;999.90;;;;;;;27.13;51.35;102732.09;10417095;28;20041;-70
2023/09/03 14:08:58;;;;;;;1999.90;999.90;;;;;;;25.24;55.77;102731.00;10417639;28;20053;-70
2023/09/03 14:14:00;;;;;;;1999.90;999.90;;;;;;;27.14;55.23;102717.66;10417414;28;20077;-70
2023/09/03 14:19:02;;;;;;;1999.90;999.90;;;;;;;26.95;51.54;102718.63;10415151;28;20466;-70
2023/09/03 14:24:05;;;;;;;1999.90;999.90;;;;;;;26.74;51.28;102723.41;10415342;28;20049;-70
2023/09/03 14:29:09;;;;;;;1999.90;999.90;;;;;;;25.86;52.63;102710.19;10414280;28;20068;-70
2023/09/03 14:34:12;;;;;;;1999.90;999.90;;;;;;;25.84;55.47;102715.69;10414408;28;20429;-70
2023/09/03 14:39:14;;;;;;;1999.90;999.90;;;;;;;26.09;54.74;102721.44;10414952;28;20053;-70
2023/09/03 14:44:16;;;;;;;1999.90;999.90;;;;;;;27.22;51.08;102712.38;10415127;28;20049;-70
2023/09/03 14:49:23;;;;;;;1999.90;999.90;;;;;;;28.20;51.17;102718.81;10397110;28;20049;-70
2023/09/03 14:54:25;;;;;;;1999.90;999.90;;;;;;;28.12;51.15;102717.75;10396962;28;20152;-70
2023/09/03 14:59:27;;;;;;;1999.90;999.90;;;;;;;28.65;47.36;102717.75;10413884;28;20503;-70
2023/09/03 15:04:30;;;;;;;1999.90;999.90;;;;;;;28.59;46.41;102710.31;10396048;28;20041;-70
2023/09/03 15:09:32;;;;;;;1999.90;999.90;;;;;;;26.64;51.60;102726.13;10414064;28;20053;-70
2023/09/03 15:14:35;;;;;;;1999.90;999.90;;;;;;;27.65;52.21;102717.19;10413916;28;20056;-70
2023/09/03 15:19:37;;;;;;;1999.90;999.90;;;;;;;26.40;54.49;102714.03;10359009;28;1100549;-69
2023/09/03 15:24:39;;;;;;;1999.90;999.90;;;;;;;28.38;51.39;102697.19;10413530;28;20532;-70
2023/09/03 15:29:42;;;;;;;1999.90;999.90;;;;;;;27.78;52.90;102709.56;10414871;28;20069;-70
2023/09/03 15:34:44;;;;;;;1999.90;999.90;;;;;;;27.00;54.45;102716.34;10396937;28;20584;-70
2023/09/03 15:39:46;;;;;;;1999.90;999.90;;;;;;;26.38;52.03;102726.75;10416366;28;20049;-70
2023/09/03 15:44:49;;;;;;;1999.90;999.90;;;;;;;25.63;56.16;102723.84;10423198;28;20046;-69
2023/09/03 15:49:51;;;;;;;1999.90;999.90;;;;;;;25.77;56.70;102726.13;10422466;28;20498;-70
2023/09/03 15:54:53;;;;;;;1999.90;999.90;;;;;;;24.56;59.60;102720.88;10422854;28;20041;-70
2023/09/03 15:59:56;;;;;;;1999.90;999.90;;;;;;;24.13;60.71;102727.25;10404756;28;20057;-70
2023/09/03 16:04:58;;;;;;;1999.90;999.90;;;;;;;24.11;64.15;102712.16;10422597;28;20053;-70
2023/09/03 16:10:02;;;;;;;1999.90;999.90;;;;;;;22.96;67.40;102722.47;10421675;28;20143;-69
2023/09/03 16:15:05;;;;;;;1999.90;999.90;;;;;;;22.75;72.01;102725.00;10421471;28;20050;-70
2023/09/03 16:20:07;;;;;;;1999.90;999.90;;;;;;;22.68;72.81;102714.94;10421274;28;20057;-69
2023/09/03 16:25:10;;;;;;;1999.90;999.90;;;;;;;22.78;73.70;102711.44;10403651;28;20067;-69
2023/09/03 16:30:12;;;;;;;1999.90;999.90;;;;;;;22.46;77.49;102711.31;10420919;28;20411;-69
2023/09/03 16:35:15;;;;;;;1999.90;999.90;;;;;;;22.23;81.19;102707.72;10421405;28;20124;-70
2023/09/03 16:40:17;;;;;;;1999.90;999.90;;;;;;;21.84;86.98;102693.78;10421590;28;20128;-71
2023/09/03 16:45:20;;;;;;;1999.90;999.90;;;;;;;21.95;85.28;102695.63;10420823;28;20080;-72
2023/09/03 16:50:22;;;;;;;1999.90;999.90;;;;;;;21.99;87.13;102692.63;10419942;28;20388;-71
2023/09/03 16:55:24;;;;;;;1999.90;999.90;;;;;;;21.87;86.61;102699.75;10419897;28;20521;-71
2023/09/03 17:00:27;;;;;;;1999.90;999.90;;;;;;;21.54;90.51;102711.09;10420323;28;20124;-71
2023/09/03 17:05:29;;;;;;;1999.90;999.90;;;;;;;21.21;92.78;102704.59;10419652;28;20050;-72
2023/09/03 17:10:32;;;;;;;1999.90;999.90;;;;;;;21.38;90.95;102705.16;10419220;28;20398;-71
2023/09/03 17:15:38;;;;;;;1999.90;999.90;;;;;;;21.29;93.13;102696.03;10419712;28;20049;-71
2023/09/03 17:20:42;;;;;;;1999.90;999.90;;;;;;;21.17;93.13;102684.47;10419967;28;20053;-72
2023/09/03 17:25:45;;;;;;;1999.90;999.90;;;;;;;20.68;98.83;102691.50;10401777;28;20133;-71
2023/09/03 17:30:47;;;;;;;1999.90;999.90;;;;;;;20.79;97.16;102682.75;10419259;28;20056;-71
2023/09/03 17:35:50;;;;;;;1999.90;999.90;;;;;;;20.56;98.93;102681.66;10418980;28;20053;-71
2023/09/03 17:40:58;;;;;;;1999.90;999.90;;;;;;;20.33;100.00;102681.47;10418793;28;20132;-71
2023/09/03 17:46:01;;;;;;;1999.90;999.90;;;;;;;20.25;100.00;102667.84;10401294;28;20051;-71
2023/09/03 17:51:03;;;;;;;1999.90;999.90;;;;;;;20.15;100.00;102674.78;10417768;28;20055;-71
2023/09/03 17:56:06;;;;;;;1999.90;999.90;;;;;;;19.88;100.00;102680.16;10417497;28;20052;-71
2023/09/03 18:01:08;;;;;;;1999.90;999.90;;;;;;;19.88;100.00;102682.81;10417919;28;20053;-71
2023/09/03 18:06:12;;;;;;;1999.90;999.90;;;;;;;19.56;100.00;102675.16;10416545;28;20076;-71
2023/09/03 18:11:16;;;;;;;1999.90;999.90;;;;;;;19.49;100.00;102680.84;10417449;28;20054;-71
2023/09/03 18:16:18;;;;;;;1999.90;999.90;;;;;;;19.01;100.00;102680.41;10416748;28;20046;-71
2023/09/03 18:21:21;;;;;;;1999.90;999.90;;;;;;;19.01;100.00;102679.56;10417126;28;20053;-71
2023/09/03 18:26:23;;;;;;;1999.90;999.90;;;;;;;18.83;100.00;102694.84;10416387;28;20041;-71
2023/09/03 18:31:26;;;;;;;1999.90;999.90;;;;;;;18.60;100.00;102697.09;10422111;22;20139;-71
2023/09/03 18:36:29;;;;;;;1999.90;999.90;;;;;;;18.45;100.00;102696.22;10457986;28;20053;-71
2023/09/03 18:41:31;;;;;;;1999.90;999.90;;;;;;;18.31;100.00;102693.56;10439409;28;20508;-71
2023/09/03 18:46:33;;;;;;;1999.90;999.90;;;;;;;18.22;100.00;102702.06;10456822;28;20477;-71
2023/09/03 18:51:36;;;;;;;1999.90;999.90;;;;;;;18.12;100.00;102704.41;10423382;28;20045;-71
2023/09/03 18:56:38;;;;;;;1999.90;999.90;;;;;;;17.89;100.00;102698.69;10456644;28;20480;-71
2023/09/03 19:01:41;;;;;;;1999.90;999.90;;;;;;;17.76;100.00;102702.94;10457123;28;20128;-71
2023/09/03 19:06:44;;;;;;;1999.90;999.90;;;;;;;17.67;100.00;102708.75;10456877;28;20076;-70
2023/09/03 19:11:46;;;;;;;1999.90;999.90;;;;;;;17.53;100.00;102713.03;10439234;28;20112;-70
2023/09/03 19:16:48;;;;;;;1999.90;999.90;;;;;;;17.47;100.00;102710.75;10455976;28;20044;-70
2023/09/03 19:21:51;;;;;;;1999.90;999.90;;;;;;;17.25;100.00;102714.59;10439001;28;20045;-71
2023/09/03 19:26:53;;;;;;;1999.90;999.90;;;;;;;17.23;100.00;102707.66;10456461;28;20053;-71
2023/09/03 19:31:55;;;;;;;1999.90;999.90;;;;;;;17.22;100.00;102711.28;10455609;28;20111;-71
2023/09/03 19:36:58;;;;;;;1999.90;999.90;;;;;;;17.01;100.00;102706.22;10455893;28;20041;-71
2023/09/03 19:42:00;;;;;;;1999.90;999.90;;;;;;;16.89;100.00;102704.22;10455620;28;20485;-71
2023/09/03 19:47:03;;;;;;;1999.90;999.90;;;;;;;16.77;100.00;102704.88;10455457;28;20486;-71
2023/09/03 19:52:10;;;;;;;1999.90;999.90;;;;;;;16.71;100.00;102706.91;10456068;28;20055;-71
2023/09/03 19:57:12;;;;;;;1999.90;999.90;;;;;;;16.68;100.00;102704.41;10455990;28;20057;-71
2023/09/03 20:02:14;;;;;;;1999.90;999.90;;;;;;;16.55;100.00;102695.41;10455904;28;20060;-71
2023/09/03 20:07:21;;;;;;;1999.90;999.90;;;;;;;16.47;100.00;102685.22;10455718;28;20132;-71
2023/09/03 20:12:23;;;;;;;1999.90;999.90;;;;;;;16.46;100.00;102677.41;10437915;28;20060;-71
2023/09/03 20:17:28;;;;;;;1999.90;999.90;;;;;;;16.52;100.00;102679.72;10455589;28;20051;-71
2023/09/03 20:22:30;;;;;;;1999.90;999.90;;;;;;;16.40;100.00;102681.22;10454903;28;20484;-70
2023/09/03 20:27:33;;;;;;;1999.90;999.90;;;;;;;16.32;100.00;102686.03;10442019;28;20052;-71
2023/09/03 20:32:35;;;;;;;1999.90;999.90;;;;;;;16.38;100.00;102669.88;10444538;28;20064;-70
2023/09/03 20:37:40;;;;;;;1999.90;999.90;;;;;;;16.18;100.00;102678.81;10444965;28;20048;-70
2023/09/03 20:42:42;;;;;;;1999.90;999.90;;;;;;;16.15;100.00;102682.50;10461738;28;20563;-70
2023/09/03 20:47:46;;;;;;;1999.90;999.90;;;;;;;16.03;100.00;102683.09;10443751;28;20564;-70
2023/09/03 20:52:48;;;;;;;1999.90;999.90;;;;;;;15.90;100.00;102688.16;10461965;28;20049;-70
2023/09/03 20:57:50;;;;;;;1999.90;999.90;;;;;;;15.79;100.00;102678.13;10444041;28;20041;-70
2023/09/03 21:02:53;;;;;;;1999.90;999.90;;;;;;;15.97;100.00;102686.06;10461512;28;20061;-71
2023/09/03 21:07:55;;;;;;;1999.90;999.90;;;;;;;15.82;100.00;102681.53;10461281;28;20087;-70
2023/09/03 21:12:58;;;;;;;1999.90;999.90;;;;;;;15.77;100.00;102692.34;10443675;28;20053;-70
2023/09/03 21:18:00;;;;;;;1999.90;999.90;;;;;;;15.79;100.00;102685.19;10443476;28;20053;-70
2023/09/03 21:23:03;;;;;;;1999.90;999.90;;;;;;;15.60;100.00;102679.91;10460170;28;20076;-70
2023/09/03 21:28:05;;;;;;;1999.90;999.90;;;;;;;15.66;100.00;102681.41;10442982;28;20072;-71
2023/09/03 21:33:08;;;;;;;1999.90;999.90;;;;;;;15.51;100.00;102698.84;10442061;28;20067;-70
2023/09/03 21:38:10;;;;;;;1999.90;999.90;;;;;;;15.40;100.00;102713.41;10459211;28;20045;-70
2023/09/03 21:43:12;;;;;;;1999.90;999.90;;;;;;;15.22;100.00;102709.84;10459933;28;20131;-70
2023/09/03 21:48:15;;;;;;;1999.90;999.90;;;;;;;15.40;100.00;102709.94;10459078;28;20500;-70